sensor_id;sensor_type;location;lat;lon;timestamp;pressure;altitude;pressure_sealevel;temperature;humidity
54924;BME280;40825;52.270;20.984;2023-04-30T00:00:07;100321.77;;;12.72;67.60
54924;BME280;40825;52.270;20.984;2023-04-30T00:02:54;100317.48;;;12.76;67.27
54924;BME280;40825;52.270;20.984;2023-04-30T00:05:20;100316.96;;;12.84;67.23
54924;BME280;40825;52.270;20.984;2023-04-30T00:07:46;100316.80;;;12.89;67.43
54924;BME280;40825;52.270;20.984;2023-04-30T00:10:11;100315.72;;;12.96;68.18
54924;BME280;40825;52.270;20.984;2023-04-30T00:12:37;100314.23;;;12.93;69.17
54924;BME280;40825;52.270;20.984;2023-04-30T00:15:03;100315.11;;;12.94;68.17
54924;BME280;40825;52.270;20.984;2023-04-30T00:17:30;100312.41;;;12.99;68.29
54924;BME280;40825;52.270;20.984;2023-04-30T00:19:55;100313.77;;;13.02;68.41
54924;BME280;40825;52.270;20.984;2023-04-30T00:22:21;100314.13;;;13.02;68.36
54924;BME280;40825;52.270;20.984;2023-04-30T00:24:46;100318.92;;;13.04;68.40
54924;BME280;40825;52.270;20.984;2023-04-30T00:27:12;100320.97;;;13.06;68.44
54924;BME280;40825;52.270;20.984;2023-04-30T00:29:37;100322.41;;;13.06;68.63
54924;BME280;40825;52.270;20.984;2023-04-30T00:32:03;100324.11;;;13.05;68.34
54924;BME280;40825;52.270;20.984;2023-04-30T00:34:28;100322.41;;;13.06;68.41
54924;BME280;40825;52.270;20.984;2023-04-30T00:36:54;100329.27;;;13.04;69.38
54924;BME280;40825;52.270;20.984;2023-04-30T00:39:19;100328.15;;;13.02;70.74
54924;BME280;40825;52.270;20.984;2023-04-30T00:41:45;100328.73;;;12.99;70.18
54924;BME280;40825;52.270;20.984;2023-04-30T00:44:10;100333.03;;;12.96;69.88
54924;BME280;40825;52.270;20.984;2023-04-30T00:46:36;100333.20;;;12.96;69.29
54924;BME280;40825;52.270;20.984;2023-04-30T00:49:01;100329.58;;;12.98;70.54
54924;BME280;40825;52.270;20.984;2023-04-30T00:51:31;100331.13;;;13.00;70.01
54924;BME280;40825;52.270;20.984;2023-04-30T00:53:59;100331.34;;;13.00;71.93
54924;BME280;40825;52.270;20.984;2023-04-30T00:56:26;100336.88;;;12.97;71.16
54924;BME280;40825;52.270;20.984;2023-04-30T00:58:51;100333.21;;;12.96;72.04
54924;BME280;40825;52.270;20.984;2023-04-30T01:02:36;100334.64;;;12.97;73.34
54924;BME280;40825;52.270;20.984;2023-04-30T01:05:03;100342.36;;;12.90;73.09
54924;BME280;40825;52.270;20.984;2023-04-30T01:07:30;100337.61;;;12.87;72.13
54924;BME280;40825;52.270;20.984;2023-04-30T01:09:56;100337.21;;;12.85;73.05
54924;BME280;40825;52.270;20.984;2023-04-30T01:20:20;100341.39;;;12.64;72.87
54924;BME280;40825;52.270;20.984;2023-04-30T01:28:39;100340.44;;;12.56;74.09
54924;BME280;40825;52.270;20.984;2023-04-30T01:31:12;100342.91;;;12.57;73.19
54924;BME280;40825;52.270;20.984;2023-04-30T01:33:38;100346.33;;;12.60;73.32
54924;BME280;40825;52.270;20.984;2023-04-30T01:36:24;100346.73;;;12.61;73.52
54924;BME280;40825;52.270;20.984;2023-04-30T01:39:14;100345.86;;;12.61;74.35
54924;BME280;40825;52.270;20.984;2023-04-30T01:42:06;100351.02;;;12.59;74.72
54924;BME280;40825;52.270;20.984;2023-04-30T01:52:58;100353.86;;;12.59;74.21
54924;BME280;40825;52.270;20.984;2023-04-30T01:55:53;100354.67;;;12.57;75.29
54924;BME280;40825;52.270;20.984;2023-04-30T01:58:21;100356.00;;;12.51;75.39
54924;BME280;40825;52.270;20.984;2023-04-30T02:00:48;100360.40;;;12.46;76.69
54924;BME280;40825;52.270;20.984;2023-04-30T02:03:13;100361.02;;;12.43;77.58
54924;BME280;40825;52.270;20.984;2023-04-30T02:05:39;100362.41;;;12.33;76.79
54924;BME280;40825;52.270;20.984;2023-04-30T02:08:05;100364.76;;;12.34;78.23
54924;BME280;40825;52.270;20.984;2023-04-30T02:10:31;100363.64;;;12.29;79.65
54924;BME280;40825;52.270;20.984;2023-04-30T02:12:56;100363.98;;;12.18;79.41
54924;BME280;40825;52.270;20.984;2023-04-30T02:15:22;100365.04;;;12.12;78.42
54924;BME280;40825;52.270;20.984;2023-04-30T02:17:48;100365.77;;;12.08;80.22
54924;BME280;40825;52.270;20.984;2023-04-30T02:20:13;100366.11;;;12.10;79.01
54924;BME280;40825;52.270;20.984;2023-04-30T02:22:39;100369.52;;;12.15;79.51
54924;BME280;40825;52.270;20.984;2023-04-30T02:25:04;100371.77;;;12.16;80.40
54924;BME280;40825;52.270;20.984;2023-04-30T02:27:31;100375.29;;;12.17;81.24
54924;BME280;40825;52.270;20.984;2023-04-30T02:29:58;100375.09;;;12.14;80.86
54924;BME280;40825;52.270;20.984;2023-04-30T02:32:23;100378.66;;;12.11;80.65
54924;BME280;40825;52.270;20.984;2023-04-30T02:34:48;100379.58;;;12.12;80.66
54924;BME280;40825;52.270;20.984;2023-04-30T02:37:14;100381.37;;;12.08;81.70
54924;BME280;40825;52.270;20.984;2023-04-30T02:39:40;100382.90;;;12.08;80.92
54924;BME280;40825;52.270;20.984;2023-04-30T02:42:06;100390.10;;;12.07;80.57
54924;BME280;40825;52.270;20.984;2023-04-30T02:44:32;100392.69;;;12.06;80.22
54924;BME280;40825;52.270;20.984;2023-04-30T02:46:58;100398.08;;;12.07;80.94
54924;BME280;40825;52.270;20.984;2023-04-30T02:49:24;100398.90;;;12.06;82.30
54924;BME280;40825;52.270;20.984;2023-04-30T02:51:49;100404.21;;;12.05;81.70
54924;BME280;40825;52.270;20.984;2023-04-30T02:54:15;100405.75;;;12.02;82.51
54924;BME280;40825;52.270;20.984;2023-04-30T02:56:41;100408.68;;;11.98;82.36
54924;BME280;40825;52.270;20.984;2023-04-30T02:59:08;100413.65;;;11.95;81.98
54924;BME280;40825;52.270;20.984;2023-04-30T03:01:33;100415.33;;;11.93;81.56
54924;BME280;40825;52.270;20.984;2023-04-30T03:03:59;100420.98;;;11.95;82.29
54924;BME280;40825;52.270;20.984;2023-04-30T03:06:25;100423.20;;;11.92;82.20
54924;BME280;40825;52.270;20.984;2023-04-30T03:08:50;100424.95;;;11.90;82.51
54924;BME280;40825;52.270;20.984;2023-04-30T03:11:16;100430.98;;;11.84;82.13
54924;BME280;40825;52.270;20.984;2023-04-30T03:13:42;100436.44;;;11.80;81.98
54924;BME280;40825;52.270;20.984;2023-04-30T03:16:07;100437.83;;;11.79;82.76
54924;BME280;40825;52.270;20.984;2023-04-30T03:18:33;100441.70;;;11.73;82.43
54924;BME280;40825;52.270;20.984;2023-04-30T03:20:58;100441.56;;;11.70;81.27
54924;BME280;40825;52.270;20.984;2023-04-30T03:23:26;100443.51;;;11.64;81.41
54924;BME280;40825;52.270;20.984;2023-04-30T03:25:52;100442.02;;;11.59;81.48
54924;BME280;40825;52.270;20.984;2023-04-30T03:28:17;100443.38;;;11.55;81.02
54924;BME280;40825;52.270;20.984;2023-04-30T03:30:43;100445.98;;;11.51;81.75
54924;BME280;40825;52.270;20.984;2023-04-30T03:33:09;100448.40;;;11.51;80.88
54924;BME280;40825;52.270;20.984;2023-04-30T03:35:34;100452.68;;;11.52;80.67
54924;BME280;40825;52.270;20.984;2023-04-30T03:38:00;100459.55;;;11.51;82.64
54924;BME280;40825;52.270;20.984;2023-04-30T03:40:26;100466.02;;;11.47;82.61
54924;BME280;40825;52.270;20.984;2023-04-30T03:42:52;100473.58;;;11.40;81.83
54924;BME280;40825;52.270;20.984;2023-04-30T03:45:17;100479.20;;;11.33;80.91
54924;BME280;40825;52.270;20.984;2023-04-30T03:47:43;100483.30;;;11.20;80.15
54924;BME280;40825;52.270;20.984;2023-04-30T03:50:09;100489.69;;;11.08;78.70
54924;BME280;40825;52.270;20.984;2023-04-30T03:52:35;100496.22;;;10.99;77.38
54924;BME280;40825;52.270;20.984;2023-04-30T03:55:02;100498.73;;;10.87;77.29
54924;BME280;40825;52.270;20.984;2023-04-30T03:57:28;100503.11;;;10.80;77.17
54924;BME280;40825;52.270;20.984;2023-04-30T03:59:53;100504.05;;;10.71;76.00
54924;BME280;40825;52.270;20.984;2023-04-30T04:02:19;100510.70;;;10.63;76.03
54924;BME280;40825;52.270;20.984;2023-04-30T04:04:46;100511.38;;;10.57;75.19
54924;BME280;40825;52.270;20.984;2023-04-30T04:07:12;100519.95;;;10.50;74.36
54924;BME280;40825;52.270;20.984;2023-04-30T04:09:37;100523.11;;;10.44;73.46
54924;BME280;40825;52.270;20.984;2023-04-30T04:12:04;100528.73;;;10.34;73.86
54924;BME280;40825;52.270;20.984;2023-04-30T04:14:30;100533.02;;;10.27;73.67
54924;BME280;40825;52.270;20.984;2023-04-30T04:16:55;100537.02;;;10.18;73.96
54924;BME280;40825;52.270;20.984;2023-04-30T04:19:22;100543.64;;;10.13;73.25
54924;BME280;40825;52.270;20.984;2023-04-30T04:21:48;100552.13;;;10.09;73.62
54924;BME280;40825;52.270;20.984;2023-04-30T04:24:14;100553.88;;;10.08;73.65
54924;BME280;40825;52.270;20.984;2023-04-30T04:26:39;100555.92;;;10.07;73.55
54924;BME280;40825;52.270;20.984;2023-04-30T04:29:05;100559.43;;;10.06;73.43
54924;BME280;40825;52.270;20.984;2023-04-30T04:31:34;100561.17;;;10.07;73.37
54924;BME280;40825;52.270;20.984;2023-04-30T04:34:02;100560.08;;;10.08;73.30
54924;BME280;40825;52.270;20.984;2023-04-30T04:36:28;100564.30;;;10.10;73.29
54924;BME280;40825;52.270;20.984;2023-04-30T04:38:55;100564.76;;;10.11;73.42
54924;BME280;40825;52.270;20.984;2023-04-30T04:41:27;100568.41;;;10.14;73.40
54924;BME280;40825;52.270;20.984;2023-04-30T04:43:53;100577.52;;;10.17;73.38
54924;BME280;40825;52.270;20.984;2023-04-30T04:46:19;100584.66;;;10.18;73.39
54924;BME280;40825;52.270;20.984;2023-04-30T04:48:45;100588.83;;;10.21;72.78
54924;BME280;40825;52.270;20.984;2023-04-30T04:51:11;100593.42;;;10.21;72.90
54924;BME280;40825;52.270;20.984;2023-04-30T04:53:37;100595.52;;;10.25;72.60
54924;BME280;40825;52.270;20.984;2023-04-30T04:56:03;100597.63;;;10.25;72.43
54924;BME280;40825;52.270;20.984;2023-04-30T04:58:29;100598.11;;;10.25;72.46
54924;BME280;40825;52.270;20.984;2023-04-30T05:00:54;100602.77;;;10.26;72.13
54924;BME280;40825;52.270;20.984;2023-04-30T05:03:21;100606.23;;;10.27;72.14
54924;BME280;40825;52.270;20.984;2023-04-30T05:05:47;100610.20;;;10.30;72.16
54924;BME280;40825;52.270;20.984;2023-04-30T05:08:12;100609.45;;;10.31;71.67
54924;BME280;40825;52.270;20.984;2023-04-30T05:10:38;100615.58;;;10.32;71.67
54924;BME280;40825;52.270;20.984;2023-04-30T05:13:03;100620.30;;;10.30;71.91
54924;BME280;40825;52.270;20.984;2023-04-30T05:15:28;100623.21;;;10.29;72.24
54924;BME280;40825;52.270;20.984;2023-04-30T05:17:55;100626.88;;;10.33;72.14
54924;BME280;40825;52.270;20.984;2023-04-30T05:20:20;100632.33;;;10.32;72.02
54924;BME280;40825;52.270;20.984;2023-04-30T05:22:46;100640.29;;;10.33;72.29
54924;BME280;40825;52.270;20.984;2023-04-30T05:25:11;100637.63;;;10.36;71.96
54924;BME280;40825;52.270;20.984;2023-04-30T05:27:37;100642.45;;;10.37;71.89
54924;BME280;40825;52.270;20.984;2023-04-30T05:30:02;100648.01;;;10.38;72.18
54924;BME280;40825;52.270;20.984;2023-04-30T05:32:28;100652.59;;;10.41;72.23
54924;BME280;40825;52.270;20.984;2023-04-30T05:34:53;100653.83;;;10.45;72.17
54924;BME280;40825;52.270;20.984;2023-04-30T05:37:19;100657.29;;;10.45;72.19
54924;BME280;40825;52.270;20.984;2023-04-30T05:39:47;100656.51;;;10.48;72.32
54924;BME280;40825;52.270;20.984;2023-04-30T05:42:13;100663.27;;;10.54;72.42
54924;BME280;40825;52.270;20.984;2023-04-30T05:44:39;100667.27;;;10.62;72.57
54924;BME280;40825;52.270;20.984;2023-04-30T05:47:05;100665.58;;;10.66;72.48
54924;BME280;40825;52.270;20.984;2023-04-30T05:49:31;100668.55;;;10.70;72.73
54924;BME280;40825;52.270;20.984;2023-04-30T05:51:56;100674.13;;;10.76;72.63
54924;BME280;40825;52.270;20.984;2023-04-30T05:54:22;100675.05;;;10.79;72.20
54924;BME280;40825;52.270;20.984;2023-04-30T05:56:47;100677.99;;;10.82;72.06
54924;BME280;40825;52.270;20.984;2023-04-30T05:59:13;100681.19;;;10.95;72.01
54924;BME280;40825;52.270;20.984;2023-04-30T06:01:38;100681.83;;;11.10;72.08
54924;BME280;40825;52.270;20.984;2023-04-30T06:04:04;100685.17;;;11.25;72.06
54924;BME280;40825;52.270;20.984;2023-04-30T06:06:30;100682.96;;;11.37;70.93
54924;BME280;40825;52.270;20.984;2023-04-30T06:08:56;100684.95;;;11.44;70.50
54924;BME280;40825;52.270;20.984;2023-04-30T06:11:22;100688.63;;;11.57;70.55
54924;BME280;40825;52.270;20.984;2023-04-30T06:13:50;100690.70;;;11.71;70.41
54924;BME280;40825;52.270;20.984;2023-04-30T06:16:16;100693.42;;;11.92;70.43
54924;BME280;40825;52.270;20.984;2023-04-30T06:18:41;100692.92;;;12.09;70.54
54924;BME280;40825;52.270;20.984;2023-04-30T06:21:07;100697.79;;;12.23;70.44
54924;BME280;40825;52.270;20.984;2023-04-30T06:23:32;100698.90;;;12.40;69.49
54924;BME280;40825;52.270;20.984;2023-04-30T06:25:58;100698.47;;;12.67;68.94
54924;BME280;40825;52.270;20.984;2023-04-30T06:28:24;100702.68;;;12.90;68.11
54924;BME280;40825;52.270;20.984;2023-04-30T06:30:49;100701.81;;;13.12;68.35
54924;BME280;40825;52.270;20.984;2023-04-30T06:33:16;100704.42;;;13.13;67.29
54924;BME280;40825;52.270;20.984;2023-04-30T06:35:41;100700.91;;;12.93;66.43
54924;BME280;40825;52.270;20.984;2023-04-30T06:38:07;100702.89;;;12.68;67.09
54924;BME280;40825;52.270;20.984;2023-04-30T06:40:33;100701.22;;;12.51;65.75
54924;BME280;40825;52.270;20.984;2023-04-30T06:42:59;100704.05;;;12.24;65.90
54924;BME280;40825;52.270;20.984;2023-04-30T06:45:24;100705.34;;;12.08;65.99
54924;BME280;40825;52.270;20.984;2023-04-30T06:47:50;100703.56;;;12.01;66.10
54924;BME280;40825;52.270;20.984;2023-04-30T06:50:17;100705.00;;;11.97;65.36
54924;BME280;40825;52.270;20.984;2023-04-30T06:52:42;100706.11;;;11.92;65.67
54924;BME280;40825;52.270;20.984;2023-04-30T06:55:08;100710.77;;;11.94;64.22
54924;BME280;40825;52.270;20.984;2023-04-30T06:57:34;100713.34;;;11.95;63.56
54924;BME280;40825;52.270;20.984;2023-04-30T07:00:04;100709.51;;;11.94;63.55
54924;BME280;40825;52.270;20.984;2023-04-30T07:02:30;100713.98;;;11.89;63.17
54924;BME280;40825;52.270;20.984;2023-04-30T07:04:56;100712.17;;;11.97;63.61
54924;BME280;40825;52.270;20.984;2023-04-30T07:07:21;100713.19;;;12.14;62.79
54924;BME280;40825;52.270;20.984;2023-04-30T07:09:47;100719.67;;;12.26;61.57
54924;BME280;40825;52.270;20.984;2023-04-30T07:12:13;100720.02;;;12.39;61.34
54924;BME280;40825;52.270;20.984;2023-04-30T07:14:38;100717.23;;;12.54;60.06
54924;BME280;40825;52.270;20.984;2023-04-30T07:17:03;100722.26;;;12.82;60.92
54924;BME280;40825;52.270;20.984;2023-04-30T07:19:29;100725.74;;;13.14;60.82
54924;BME280;40825;52.270;20.984;2023-04-30T07:21:54;100720.86;;;13.34;59.50
54924;BME280;40825;52.270;20.984;2023-04-30T07:24:20;100726.91;;;13.60;58.63
54924;BME280;40825;52.270;20.984;2023-04-30T07:26:45;100725.79;;;13.85;55.37
54924;BME280;40825;52.270;20.984;2023-04-30T07:29:11;100729.52;;;14.04;56.84
54924;BME280;40825;52.270;20.984;2023-04-30T07:31:36;100732.88;;;14.06;55.37
54924;BME280;40825;52.270;20.984;2023-04-30T07:34:02;100740.60;;;14.02;55.08
54924;BME280;40825;52.270;20.984;2023-04-30T07:36:27;100738.52;;;14.05;53.78
54924;BME280;40825;52.270;20.984;2023-04-30T07:38:53;100741.30;;;13.95;53.55
54924;BME280;40825;52.270;20.984;2023-04-30T07:41:18;100742.33;;;14.00;52.26
54924;BME280;40825;52.270;20.984;2023-04-30T07:43:44;100745.84;;;14.00;52.26
54924;BME280;40825;52.270;20.984;2023-04-30T07:46:09;100745.21;;;14.17;52.91
54924;BME280;40825;52.270;20.984;2023-04-30T07:48:35;100749.89;;;14.29;52.18
54924;BME280;40825;52.270;20.984;2023-04-30T07:51:02;100749.63;;;14.39;51.58
54924;BME280;40825;52.270;20.984;2023-04-30T07:53:29;100751.16;;;14.50;50.62
54924;BME280;40825;52.270;20.984;2023-04-30T07:55:55;100752.11;;;14.58;50.74
54924;BME280;40825;52.270;20.984;2023-04-30T07:58:21;100756.23;;;14.55;49.47
54924;BME280;40825;52.270;20.984;2023-04-30T08:00:46;100752.56;;;14.34;49.69
54924;BME280;40825;52.270;20.984;2023-04-30T08:03:12;100754.06;;;14.26;49.44
54924;BME280;40825;52.270;20.984;2023-04-30T08:05:37;100758.86;;;14.34;49.68
54924;BME280;40825;52.270;20.984;2023-04-30T08:08:03;100762.97;;;14.02;47.91
54924;BME280;40825;52.270;20.984;2023-04-30T08:10:28;100764.73;;;13.81;48.83
54924;BME280;40825;52.270;20.984;2023-04-30T08:12:54;100762.48;;;13.73;49.49
54924;BME280;40825;52.270;20.984;2023-04-30T08:15:19;100757.25;;;13.65;50.15
54924;BME280;40825;52.270;20.984;2023-04-30T08:17:48;100763.49;;;13.68;50.33
54924;BME280;40825;52.270;20.984;2023-04-30T08:20:14;100767.51;;;13.71;49.91
54924;BME280;40825;52.270;20.984;2023-04-30T08:22:39;100770.06;;;13.71;49.63
54924;BME280;40825;52.270;20.984;2023-04-30T08:25:05;100772.28;;;13.87;49.71
54924;BME280;40825;52.270;20.984;2023-04-30T08:27:31;100776.68;;;13.94;49.29
54924;BME280;40825;52.270;20.984;2023-04-30T08:29:57;100779.17;;;14.04;48.78
54924;BME280;40825;52.270;20.984;2023-04-30T08:32:22;100775.47;;;14.17;48.06
54924;BME280;40825;52.270;20.984;2023-04-30T08:34:48;100777.33;;;14.23;48.05
54924;BME280;40825;52.270;20.984;2023-04-30T08:37:13;100779.02;;;14.28;46.05
54924;BME280;40825;52.270;20.984;2023-04-30T08:39:40;100783.80;;;14.22;45.99
54924;BME280;40825;52.270;20.984;2023-04-30T08:42:08;100790.21;;;14.26;46.17
54924;BME280;40825;52.270;20.984;2023-04-30T08:44:34;100792.23;;;14.39;45.62
54924;BME280;40825;52.270;20.984;2023-04-30T08:47:05;100790.45;;;14.52;43.98
54924;BME280;40825;52.270;20.984;2023-04-30T08:49:31;100797.66;;;14.71;43.82
54924;BME280;40825;52.270;20.984;2023-04-30T08:51:57;100797.14;;;15.06;43.00
54924;BME280;40825;52.270;20.984;2023-04-30T08:54:29;100796.54;;;15.46;42.73
54924;BME280;40825;52.270;20.984;2023-04-30T08:56:55;100795.55;;;15.92;40.40
54924;BME280;40825;52.270;20.984;2023-04-30T08:59:21;100802.05;;;16.29;37.38
54924;BME280;40825;52.270;20.984;2023-04-30T09:01:46;100808.60;;;16.53;37.53
54924;BME280;40825;52.270;20.984;2023-04-30T09:04:12;100806.15;;;16.86;37.98
54924;BME280;40825;52.270;20.984;2023-04-30T09:06:37;100814.12;;;17.08;36.29
54924;BME280;40825;52.270;20.984;2023-04-30T09:09:14;100809.75;;;17.31;34.09
54924;BME280;40825;52.270;20.984;2023-04-30T09:11:40;100809.75;;;17.23;33.89
54924;BME280;40825;52.270;20.984;2023-04-30T09:14:06;100811.47;;;17.48;35.38
54924;BME280;40825;52.270;20.984;2023-04-30T09:16:49;100814.30;;;18.00;36.79
54924;BME280;40825;52.270;20.984;2023-04-30T09:19:26;100816.67;;;18.42;34.96
54924;BME280;40825;52.270;20.984;2023-04-30T09:21:53;100818.70;;;18.66;35.05
54924;BME280;40825;52.270;20.984;2023-04-30T09:24:19;100820.96;;;18.80;31.12
54924;BME280;40825;52.270;20.984;2023-04-30T09:26:45;100826.02;;;18.14;30.51
54924;BME280;40825;52.270;20.984;2023-04-30T09:29:14;100823.91;;;17.95;32.56
54924;BME280;40825;52.270;20.984;2023-04-30T09:31:44;100829.39;;;18.10;31.94
54924;BME280;40825;52.270;20.984;2023-04-30T09:34:10;100826.27;;;18.12;32.49
54924;BME280;40825;52.270;20.984;2023-04-30T09:36:36;100829.19;;;18.39;31.48
54924;BME280;40825;52.270;20.984;2023-04-30T09:39:09;100831.70;;;18.46;31.77
54924;BME280;40825;52.270;20.984;2023-04-30T09:41:43;100830.77;;;18.57;32.55
54924;BME280;40825;52.270;20.984;2023-04-30T09:44:31;100832.17;;;18.67;31.82
54924;BME280;40825;52.270;20.984;2023-04-30T09:47:01;100832.30;;;18.91;32.60
54924;BME280;40825;52.270;20.984;2023-04-30T09:49:27;100828.45;;;19.02;31.76
54924;BME280;40825;52.270;20.984;2023-04-30T09:51:57;100829.85;;;18.95;30.64
54924;BME280;40825;52.270;20.984;2023-04-30T09:54:28;100834.15;;;18.80;31.23
54924;BME280;40825;52.270;20.984;2023-04-30T09:56:56;100834.77;;;18.81;30.64
54924;BME280;40825;52.270;20.984;2023-04-30T09:59:30;100834.75;;;18.94;31.29
54924;BME280;40825;52.270;20.984;2023-04-30T10:02:01;100833.05;;;19.23;31.44
54924;BME280;40825;52.270;20.984;2023-04-30T10:04:33;100828.80;;;19.43;30.78
54924;BME280;40825;52.270;20.984;2023-04-30T10:07:03;100829.69;;;19.60;31.30
54924;BME280;40825;52.270;20.984;2023-04-30T10:09:34;100828.08;;;19.93;31.80
54924;BME280;40825;52.270;20.984;2023-04-30T10:12:04;100828.62;;;20.01;29.27
54924;BME280;40825;52.270;20.984;2023-04-30T10:14:32;100828.02;;;19.92;29.13
54924;BME280;40825;52.270;20.984;2023-04-30T10:20:37;100826.63;;;19.26;29.14
54924;BME280;40825;52.270;20.984;2023-04-30T10:23:04;100830.98;;;19.02;28.58
54924;BME280;40825;52.270;20.984;2023-04-30T10:25:31;100827.27;;;18.94;29.05
54924;BME280;40825;52.270;20.984;2023-04-30T10:27:57;100827.78;;;18.92;29.14
54924;BME280;40825;52.270;20.984;2023-04-30T10:30:22;100822.30;;;18.92;29.46
54924;BME280;40825;52.270;20.984;2023-04-30T10:35:25;100823.96;;;19.15;29.44
54924;BME280;40825;52.270;20.984;2023-04-30T10:37:56;100814.84;;;19.06;29.32
54924;BME280;40825;52.270;20.984;2023-04-30T10:40:27;100822.42;;;19.09;29.64
54924;BME280;40825;52.270;20.984;2023-04-30T10:42:53;100821.37;;;18.73;29.00
54924;BME280;40825;52.270;20.984;2023-04-30T10:45:36;100815.52;;;18.22;30.19
54924;BME280;40825;52.270;20.984;2023-04-30T10:48:04;100815.17;;;18.29;30.77
54924;BME280;40825;52.270;20.984;2023-04-30T10:50:31;100816.21;;;18.36;30.54
54924;BME280;40825;52.270;20.984;2023-04-30T10:53:03;100817.48;;;18.30;30.72
54924;BME280;40825;52.270;20.984;2023-04-30T10:55:30;100816.88;;;18.24;30.10
54924;BME280;40825;52.270;20.984;2023-04-30T10:57:59;100809.55;;;17.88;30.09
54924;BME280;40825;52.270;20.984;2023-04-30T11:00:26;100819.42;;;17.59;30.92
54924;BME280;40825;52.270;20.984;2023-04-30T11:03:02;100825.07;;;17.52;30.43
54924;BME280;40825;52.270;20.984;2023-04-30T11:05:37;100823.09;;;17.16;30.33
54924;BME280;40825;52.270;20.984;2023-04-30T11:08:04;100819.33;;;16.97;30.65
54924;BME280;40825;52.270;20.984;2023-04-30T11:10:34;100822.46;;;17.11;31.39
54924;BME280;40825;52.270;20.984;2023-04-30T11:13:06;100823.03;;;17.42;30.84
54924;BME280;40825;52.270;20.984;2023-04-30T11:15:39;100823.44;;;17.43;29.70
54924;BME280;40825;52.270;20.984;2023-04-30T11:18:08;100828.30;;;17.40;29.96
54924;BME280;40825;52.270;20.984;2023-04-30T11:20:39;100832.35;;;17.38;30.02
54924;BME280;40825;52.270;20.984;2023-04-30T11:23:14;100831.44;;;17.19;30.01
54924;BME280;40825;52.270;20.984;2023-04-30T11:25:41;100834.61;;;17.03;30.06
54924;BME280;40825;52.270;20.984;2023-04-30T11:28:13;100835.75;;;16.91;30.49
54924;BME280;40825;52.270;20.984;2023-04-30T11:30:52;100837.27;;;16.70;29.84
54924;BME280;40825;52.270;20.984;2023-04-30T11:33:18;100836.94;;;16.24;30.48
54924;BME280;40825;52.270;20.984;2023-04-30T11:35:44;100840.21;;;16.24;31.04
54924;BME280;40825;52.270;20.984;2023-04-30T11:38:11;100836.96;;;16.33;30.91
54924;BME280;40825;52.270;20.984;2023-04-30T11:40:37;100843.21;;;16.45;31.24
54924;BME280;40825;52.270;20.984;2023-04-30T11:43:03;100845.64;;;16.57;31.01
54924;BME280;40825;52.270;20.984;2023-04-30T11:45:28;100840.54;;;16.59;31.20
54924;BME280;40825;52.270;20.984;2023-04-30T11:47:56;100845.63;;;16.70;31.83
54924;BME280;40825;52.270;20.984;2023-04-30T11:50:23;100849.60;;;16.65;31.15
54924;BME280;40825;52.270;20.984;2023-04-30T11:52:57;100842.58;;;16.42;31.91
54924;BME280;40825;52.270;20.984;2023-04-30T11:55:24;100844.83;;;16.45;32.40
54924;BME280;40825;52.270;20.984;2023-04-30T11:57:55;100851.90;;;16.47;31.78
54924;BME280;40825;52.270;20.984;2023-04-30T12:00:25;100852.66;;;16.28;31.25
54924;BME280;40825;52.270;20.984;2023-04-30T12:02:52;100857.64;;;16.06;31.83
54924;BME280;40825;52.270;20.984;2023-04-30T12:05:19;100854.04;;;16.01;32.22
54924;BME280;40825;52.270;20.984;2023-04-30T12:07:47;100855.30;;;15.93;32.14
54924;BME280;40825;52.270;20.984;2023-04-30T12:10:13;100862.59;;;15.98;32.55
54924;BME280;40825;52.270;20.984;2023-04-30T12:12:39;100858.98;;;16.07;33.01
54924;BME280;40825;52.270;20.984;2023-04-30T12:15:12;100855.43;;;16.22;33.13
54924;BME280;40825;52.270;20.984;2023-04-30T12:17:38;100857.21;;;16.45;33.35
54924;BME280;40825;52.270;20.984;2023-04-30T12:20:05;100855.23;;;16.69;33.41
54924;BME280;40825;52.270;20.984;2023-04-30T12:22:31;100843.73;;;16.77;32.07
54924;BME280;40825;52.270;20.984;2023-04-30T12:24:58;100856.95;;;16.88;32.64
54924;BME280;40825;52.270;20.984;2023-04-30T12:27:24;100855.59;;;16.86;31.33
54924;BME280;40825;52.270;20.984;2023-04-30T12:29:50;100859.25;;;16.56;31.19
54924;BME280;40825;52.270;20.984;2023-04-30T12:32:20;100858.95;;;16.58;31.13
54924;BME280;40825;52.270;20.984;2023-04-30T12:34:46;100861.80;;;16.55;31.27
54924;BME280;40825;52.270;20.984;2023-04-30T12:37:16;100861.95;;;16.67;31.44
54924;BME280;40825;52.270;20.984;2023-04-30T12:39:42;100863.77;;;16.66;31.93
54924;BME280;40825;52.270;20.984;2023-04-30T12:42:07;100859.46;;;16.71;31.45
54924;BME280;40825;52.270;20.984;2023-04-30T12:44:42;100855.34;;;16.76;31.93
54924;BME280;40825;52.270;20.984;2023-04-30T12:47:09;100846.73;;;16.94;32.27
54924;BME280;40825;52.270;20.984;2023-04-30T12:49:34;100846.27;;;17.12;31.87
54924;BME280;40825;52.270;20.984;2023-04-30T12:52:05;100851.81;;;17.45;32.34
54924;BME280;40825;52.270;20.984;2023-04-30T12:54:33;100852.61;;;17.69;31.07
54924;BME280;40825;52.270;20.984;2023-04-30T12:57:10;100853.02;;;17.65;30.24
54924;BME280;40825;52.270;20.984;2023-04-30T12:59:38;100851.87;;;17.51;30.26
54924;BME280;40825;52.270;20.984;2023-04-30T13:02:11;100846.34;;;17.42;30.83
54924;BME280;40825;52.270;20.984;2023-04-30T13:04:39;100845.42;;;17.37;30.73
54924;BME280;40825;52.270;20.984;2023-04-30T13:07:05;100845.45;;;17.28;30.72
54924;BME280;40825;52.270;20.984;2023-04-30T13:09:32;100847.27;;;17.08;30.11